This is the latest recevied weather packets stored in our database for station/object EA1AHA-13. If no packets are shown the sender has not sent any weather packets the latest 1 day(s).
| Time | Temp. | Humidity | Pressure | Rain* | Wind** | Luminosity | Snow |
|---|---|---|---|---|---|---|---|
| 1778100700 | 12.78° C | 91% | 1012.8 hPa | 0.25 mm | - | - | - |
| 1778098301 | 13.33° C | 88% | 1012.5 hPa | 0.25 mm | - | - | - |
| 1778097677 | 13.33° C | 88% | 1012.5 hPa | 0.25 mm | - | - | - |
| 1778096477 | 13.33° C | 87% | 1012.4 hPa | 0.25 mm | - | - | - |
| 1778095901 | 13.89° C | 87% | 1012.3 hPa | 0.25 mm | - | - | - |
| 1778094077 | 13.33° C | 87% | 1012.5 hPa | 0.25 mm | - | - | - |
| 1778092877 | 14.44° C | 84% | 1012.1 hPa | 0 mm | - | - | - |
| 1778092301 | 13.89° C | 82% | 1012.2 hPa | 0 mm | - | - | - |
| 1778090477 | 14.44° C | 81% | 1012.3 hPa | 0 mm | - | - | - |
| 1778089902 | 14.44° C | 80% | 1012.2 hPa | 0 mm | - | - | - |
| 1778088702 | 15° C | 80% | 1012.4 hPa | 0 mm | - | - | - |
| 1778088078 | 15° C | 79% | 1012.4 hPa | 0 mm | - | - | - |
| 1778087500 | 15° C | 79% | 1012.3 hPa | 0 mm | - | - | - |
| 1778085677 | 15° C | 75% | 1012.4 hPa | 0 mm | - | - | - |
| 1778085101 | 15.56° C | 76% | 1012.1 hPa | 0 mm | - | - | - |
| 1778084477 | 15° C | 77% | 1012.4 hPa | 0 mm | - | - | - |
| 1778083277 | 15.56° C | 74% | 1012 hPa | 0 mm | - | - | - |
| 1778082701 | 15° C | 74% | 1012.3 hPa | 0 mm | - | - | - |
| 1778080301 | 15.56° C | 68% | 1012.5 hPa | 0 mm | - | - | - |
| 1778077900 | 15.56° C | 69% | 1013 hPa | 0 mm | - | - | - |
| 1778076701 | 15° C | 75% | 1013 hPa | 0 mm | - | - | - |
| 1778074877 | 14.44° C | 75% | 1013.2 hPa | 0 mm | - | - | - |
| 1778071277 | 16.11° C | 65% | 1013.3 hPa | 0 mm | - | - | - |
| 1778066477 | 15.56° C | 72% | 1013.3 hPa | 0 mm | - | - | - |
| 1778060765 | 15° C | 71% | 1013.8 hPa | 0 mm | - | - | - |
* Rain latest hour (hover to see other rain measurements)
** Current wind speed in m/s (hover to see current wind gust speed)